Time,TemperatureF,DewpointF,PressureIn,WindDirection,WindDirectionDegrees,WindSpeedMPH,WindSpeedGustMPH,Humidity,HourlyPrecipIn,Conditions,Clouds,dailyrainin,SolarRadiationWatts/m^2,SoftwareType,DateUTC
2013-04-14 00:08:00,33.5,29.0,29.90,NNW,332,0.0,2.0,82,0.00,,,0.00,0,weatherlink.com 1.10,2013-04-14 04:08:00,
2013-04-14 00:23:00,33.4,29.0,29.90,NNW,332,0.0,1.0,83,0.00,,,0.00,0,weatherlink.com 1.10,2013-04-14 04:23:00,
2013-04-14 00:38:00,33.4,29.0,29.90,NNW,332,0.0,1.0,83,0.00,,,0.00,0,weatherlink.com 1.10,2013-04-14 04:38:00,
2013-04-14 00:53:00,33.3,30.0,29.91,WSW,257,0.0,6.0,86,0.00,,,0.00,0,weatherlink.com 1.10,2013-04-14 04:53:00,
2013-04-14 01:08:00,34.2,30.0,29.90,SSE,158,0.0,5.0,83,0.00,,,0.00,0,weatherlink.com 1.10,2013-04-14 05:08:00,
2013-04-14 01:23:00,34.1,30.0,29.90,WNW,302,0.0,5.0,83,0.00,,,0.00,0,weatherlink.com 1.10,2013-04-14 05:23:00,
2013-04-14 01:38:00,34.0,30.0,29.90,WNW,295,2.0,5.0,84,0.00,,,0.00,0,weatherlink.com 1.10,2013-04-14 05:38:00,
2013-04-14 01:53:00,34.0,30.0,29.90,WNW,287,0.0,7.0,85,0.00,,,0.00,0,weatherlink.com 1.10,2013-04-14 05:53:00,
2013-04-14 02:08:00,33.5,30.0,29.90,WNW,294,0.0,9.0,87,0.00,,,0.00,0,weatherlink.com 1.10,2013-04-14 06:08:00,
2013-04-14 02:23:00,33.2,30.0,29.89,NW,307,0.0,4.0,88,0.00,,,0.00,0,weatherlink.com 1.10,2013-04-14 06:23:00,
2013-04-14 02:38:00,33.2,30.0,29.90,WSW,250,0.0,8.0,88,0.00,,,0.00,0,weatherlink.com 1.10,2013-04-14 06:38:00,
2013-04-14 02:53:00,33.1,30.0,29.90,West,279,4.0,9.0,89,0.00,,,0.00,0,weatherlink.com 1.10,2013-04-14 06:53:00,
2013-04-14 03:08:00,32.9,30.0,29.89,NE,56,0.0,5.0,89,0.00,,,0.00,0,weatherlink.com 1.10,2013-04-14 07:08:00,
2013-04-14 03:23:00,33.2,30.0,29.89,NW,309,4.0,9.0,88,0.00,,,0.00,0,weatherlink.com 1.10,2013-04-14 07:23:00,
2013-04-14 03:38:00,33.4,30.0,29.90,South,184,3.0,6.0,87,0.00,,,0.00,0,weatherlink.com 1.10,2013-04-14 07:38:00,
2013-04-14 03:53:00,33.2,30.0,29.90,NW,309,2.0,11.0,86,0.00,,,0.00,0,weatherlink.com 1.10,2013-04-14 07:53:00,
2013-04-14 04:08:00,33.0,31.0,29.90,WNW,303,5.0,10.0,92,0.00,,,0.00,0,weatherlink.com 1.10,2013-04-14 08:08:00,
2013-04-14 04:23:00,32.9,30.0,29.89,NW,313,0.0,11.0,87,0.00,,,0.00,0,weatherlink.com 1.10,2013-04-14 08:23:00,
2013-04-14 04:38:00,32.7,30.0,29.89,West,274,0.0,6.0,88,0.00,,,0.00,0,weatherlink.com 1.10,2013-04-14 08:38:00,
2013-04-14 04:53:00,32.6,30.0,29.89,SSW,194,0.0,9.0,88,0.01,,,0.01,0,weatherlink.com 1.10,2013-04-14 08:53:00,
2013-04-14 05:08:00,32.4,29.0,29.91,West,280,1.0,12.0,87,0.01,,,0.01,0,weatherlink.com 1.10,2013-04-14 09:08:00,
2013-04-14 05:23:00,32.3,29.0,29.90,West,279,1.0,12.0,88,0.01,,,0.01,0,weatherlink.com 1.10,2013-04-14 09:23:00,
2013-04-14 05:38:00,32.2,29.0,29.90,NW,316,0.0,6.0,89,0.01,,,0.01,0,weatherlink.com 1.10,2013-04-14 09:38:00,
2013-04-14 05:53:00,32.2,29.0,29.90,SSW,204,0.0,7.0,89,0.00,,,0.01,0,weatherlink.com 1.10,2013-04-14 09:53:00,
2013-04-14 06:08:00,32.3,29.0,29.90,South,170,4.0,11.0,88,0.00,,,0.01,0,weatherlink.com 1.10,2013-04-14 10:08:00,
2013-04-14 06:23:00,32.1,29.0,29.90,SE,126,0.0,9.0,89,0.00,,,0.01,0,weatherlink.com 1.10,2013-04-14 10:23:00,
2013-04-14 06:38:00,32.1,29.0,29.90,South,187,4.0,8.0,89,0.00,,,0.01,7,weatherlink.com 1.10,2013-04-14 10:38:00,
2013-04-14 06:53:00,32.4,29.0,29.91,WNW,289,2.0,9.0,87,0.00,,,0.01,33,weatherlink.com 1.10,2013-04-14 10:53:00,
2013-04-14 07:08:00,32.2,29.0,29.91,SSW,212,2.0,23.0,87,0.00,,,0.01,32,weatherlink.com 1.10,2013-04-14 11:08:00,
2013-04-14 07:23:00,32.3,29.0,29.92,SSE,155,5.0,7.0,86,0.00,,,0.01,60,weatherlink.com 1.10,2013-04-14 11:23:00,
2013-04-14 07:39:00,32.5,29.0,29.93,NW,305,2.0,13.0,85,0.00,,,0.01,86,weatherlink.com 1.10,2013-04-14 11:39:00,
2013-04-14 07:54:00,32.6,28.0,29.93,WNW,288,3.0,19.0,84,0.00,,,0.01,84,weatherlink.com 1.10,2013-04-14 11:54:00,
2013-04-14 08:09:00,32.4,28.0,29.93,WNW,302,1.0,11.0,85,0.00,,,0.01,91,weatherlink.com 1.10,2013-04-14 12:09:00,
2013-04-14 08:24:00,32.1,29.0,29.94,NW,304,0.0,15.0,87,0.00,,,0.01,70,weatherlink.com 1.10,2013-04-14 12:24:00,
2013-04-14 08:39:00,32.8,29.0,29.93,West,271,1.0,13.0,85,0.01,,,0.02,176,weatherlink.com 1.10,2013-04-14 12:39:00,
2013-04-14 08:54:00,34.4,29.0,29.93,WNW,299,5.0,16.0,82,0.01,,,0.02,223,weatherlink.com 1.10,2013-04-14 12:54:00,
2013-04-14 09:09:00,34.8,29.0,29.94,NW,322,7.0,11.0,78,0.01,,,0.02,332,weatherlink.com 1.10,2013-04-14 13:09:00,
2013-04-14 09:25:00,34.9,29.0,29.94,WSW,258,2.0,12.0,80,0.01,,,0.02,297,weatherlink.com 1.10,2013-04-14 13:25:00,
2013-04-14 09:41:00,35.0,29.0,29.95,WNW,300,5.0,14.0,79,0.00,,,0.02,128,weatherlink.com 1.10,2013-04-14 13:41:00,
2013-04-14 09:55:00,34.4,29.0,29.96,West,273,2.0,7.0,80,0.00,,,0.02,156,weatherlink.com 1.10,2013-04-14 13:55:00,
2013-04-14 10:11:00,33.6,29.0,29.96,NW,321,0.0,10.0,82,0.00,,,0.02,104,weatherlink.com 1.10,2013-04-14 14:11:00,
2013-04-14 10:25:00,33.5,28.0,29.97,WNW,302,7.0,10.0,81,0.01,,,0.03,151,weatherlink.com 1.10,2013-04-14 14:25:00,
2013-04-14 10:41:00,34.4,29.0,29.97,NNW,327,1.0,9.0,79,0.01,,,0.03,279,weatherlink.com 1.10,2013-04-14 14:41:00,
2013-04-14 10:56:00,35.0,28.0,29.98,SSW,193,0.0,6.0,76,0.01,,,0.03,193,weatherlink.com 1.10,2013-04-14 14:56:00,
2013-04-14 11:12:00,34.4,28.0,29.98,SW,225,0.0,9.0,78,0.02,,,0.04,278,weatherlink.com 1.10,2013-04-14 15:12:00,
2013-04-14 11:26:00,35.1,29.0,29.98,WNW,282,0.0,8.0,77,0.01,,,0.04,374,weatherlink.com 1.10,2013-04-14 15:26:00,
2013-04-14 11:42:00,36.8,29.0,29.98,NW,304,4.0,9.0,72,0.01,,,0.04,475,weatherlink.com 1.10,2013-04-14 15:42:00,
2013-04-14 11:56:00,37.5,28.0,29.98,West,273,3.0,6.0,68,0.01,,,0.04,204,weatherlink.com 1.10,2013-04-14 15:56:00,
2013-04-14 12:12:00,34.8,27.0,29.99,NW,319,1.0,7.0,74,0.00,,,0.04,250,weatherlink.com 1.10,2013-04-14 16:12:00,
2013-04-14 12:27:00,34.6,27.0,29.98,NW,321,4.0,13.0,74,0.00,,,0.04,297,weatherlink.com 1.10,2013-04-14 16:27:00,
2013-04-14 12:42:00,34.4,27.0,29.98,NW,312,0.0,10.0,74,0.00,,,0.04,97,weatherlink.com 1.10,2013-04-14 16:42:00,
2013-04-14 12:57:00,34.3,27.0,29.98,SW,236,2.0,14.0,74,0.00,,,0.04,105,weatherlink.com 1.10,2013-04-14 16:57:00,
2013-04-14 13:12:00,34.4,27.0,30.00,ESE,113,1.0,21.0,74,0.00,,,0.04,142,weatherlink.com 1.10,2013-04-14 17:12:00,
2013-04-14 13:27:00,35.2,26.0,30.00,NNW,331,0.0,12.0,70,0.00,,,0.04,322,weatherlink.com 1.10,2013-04-14 17:27:00,
2013-04-14 13:43:00,34.4,27.0,30.00,WNW,287,9.0,13.0,73,0.00,,,0.04,93,weatherlink.com 1.10,2013-04-14 17:43:00,
2013-04-14 13:58:00,34.1,26.0,30.02,WNW,284,3.0,10.0,73,0.00,,,0.04,276,weatherlink.com 1.10,2013-04-14 17:58:00,
2013-04-14 14:14:00,34.9,25.0,30.02,NW,313,6.0,15.0,68,0.00,,,0.04,448,weatherlink.com 1.10,2013-04-14 18:14:00,
2013-04-14 14:28:00,35.0,26.0,30.01,NNW,347,8.0,15.0,69,0.00,,,0.04,346,weatherlink.com 1.10,2013-04-14 18:28:00,
2013-04-14 14:44:00,35.9,25.0,30.02,NW,308,1.0,14.0,65,0.00,,,0.04,195,weatherlink.com 1.10,2013-04-14 18:44:00,
2013-04-14 14:58:00,35.1,25.0,30.01,WSW,250,1.0,9.0,67,0.00,,,0.04,93,weatherlink.com 1.10,2013-04-14 18:58:00,
2013-04-14 15:13:00,34.4,26.0,30.03,WNW,300,7.0,9.0,70,0.00,,,0.04,86,weatherlink.com 1.10,2013-04-14 19:13:00,
2013-04-14 15:28:00,34.4,26.0,30.03,South,188,6.0,11.0,71,0.00,,,0.04,206,weatherlink.com 1.10,2013-04-14 19:28:00,
2013-04-14 15:43:00,35.7,26.0,30.04,West,279,5.0,18.0,68,0.00,,,0.04,360,weatherlink.com 1.10,2013-04-14 19:43:00,
2013-04-14 15:59:00,35.9,26.0,30.04,WNW,301,1.0,10.0,68,0.00,,,0.04,237,weatherlink.com 1.10,2013-04-14 19:59:00,
2013-04-14 16:14:00,35.5,25.0,30.04,West,276,1.0,12.0,67,0.00,,,0.04,234,weatherlink.com 1.10,2013-04-14 20:14:00,
2013-04-14 16:29:00,35.3,25.0,30.04,NNW,327,6.0,10.0,67,0.00,,,0.04,188,weatherlink.com 1.10,2013-04-14 20:29:00,
2013-04-14 16:44:00,35.4,25.0,30.04,WNW,300,4.0,11.0,67,0.00,,,0.04,153,weatherlink.com 1.10,2013-04-14 20:44:00,
2013-04-14 16:59:00,35.5,26.0,30.06,WNW,296,2.0,8.0,69,0.00,,,0.04,178,weatherlink.com 1.10,2013-04-14 20:59:00,
2013-04-14 17:16:00,35.9,25.0,30.06,NNW,327,6.0,13.0,66,0.00,,,0.04,127,weatherlink.com 1.10,2013-04-14 21:16:00,
2013-04-14 17:31:00,35.5,25.0,30.07,West,265,3.0,11.0,66,0.00,,,0.04,60,weatherlink.com 1.10,2013-04-14 21:31:00,
2013-04-14 17:46:00,35.2,25.0,30.08,West,277,8.0,11.0,67,0.00,,,0.04,104,weatherlink.com 1.10,2013-04-14 21:46:00,
2013-04-14 18:03:00,35.2,26.0,30.08,WNW,294,0.0,14.0,68,0.00,,,0.04,116,weatherlink.com 1.10,2013-04-14 22:03:00,
2013-04-14 18:31:00,35.3,25.0,30.09,SW,234,0.0,9.0,67,0.00,,,0.04,56,weatherlink.com 1.10,2013-04-14 22:31:00,
2013-04-14 18:46:00,35.3,26.0,30.10,WNW,294,0.0,9.0,68,0.00,,,0.04,37,weatherlink.com 1.10,2013-04-14 22:46:00,
2013-04-14 19:02:00,35.2,24.0,30.10,SW,232,1.0,7.0,65,0.00,,,0.04,19,weatherlink.com 1.10,2013-04-14 23:02:00,
2013-04-14 19:16:00,35.1,24.0,30.11,NW,314,5.0,9.0,64,0.00,,,0.04,7,weatherlink.com 1.10,2013-04-14 23:16:00,
2013-04-14 19:31:00,34.8,25.0,30.11,NW,316,4.0,7.0,67,0.00,,,0.04,0,weatherlink.com 1.10,2013-04-14 23:31:00,
2013-04-14 19:46:00,34.7,24.0,30.11,WNW,298,2.0,11.0,64,0.00,,,0.04,0,weatherlink.com 1.10,2013-04-14 23:46:00,
2013-04-14 20:02:00,34.4,23.0,30.12,NNW,334,7.0,9.0,64,0.00,,,0.04,0,weatherlink.com 1.10,2013-04-15 00:02:00,
2013-04-14 20:16:00,34.3,24.0,30.14,NW,304,1.0,12.0,66,0.00,,,0.04,0,weatherlink.com 1.10,2013-04-15 00:16:00,
2013-04-14 20:31:00,34.1,24.0,30.15,NW,311,0.0,7.0,66,0.00,,,0.04,0,weatherlink.com 1.10,2013-04-15 00:31:00,
2013-04-14 20:46:00,33.8,23.0,30.16,WNW,290,2.0,7.0,66,0.00,,,0.04,0,weatherlink.com 1.10,2013-04-15 00:46:00,
2013-04-14 21:01:00,33.7,23.0,30.17,NW,306,1.0,5.0,66,0.00,,,0.04,0,weatherlink.com 1.10,2013-04-15 01:01:00,
2013-04-14 21:17:00,33.7,24.0,30.17,West,280,4.0,10.0,67,0.00,,,0.04,0,weatherlink.com 1.10,2013-04-15 01:17:00,
2013-04-14 21:32:00,33.4,23.0,30.18,WNW,296,0.0,7.0,66,0.00,,,0.04,0,weatherlink.com 1.10,2013-04-15 01:32:00,
2013-04-14 21:47:00,32.9,23.0,30.18,WNW,295,3.0,5.0,67,0.00,,,0.04,0,weatherlink.com 1.10,2013-04-15 01:47:00,
2013-04-14 22:02:00,32.1,23.0,30.17,WNW,288,5.0,10.0,70,0.00,,,0.04,0,weatherlink.com 1.10,2013-04-15 02:02:00,
2013-04-14 22:17:00,32.2,23.0,30.17,NW,326,1.0,6.0,70,0.00,,,0.04,0,weatherlink.com 1.10,2013-04-15 02:17:00,
2013-04-14 22:32:00,31.8,23.0,30.18,NW,306,4.0,6.0,71,0.00,,,0.04,0,weatherlink.com 1.10,2013-04-15 02:32:00,
2013-04-14 22:47:00,31.7,23.0,30.18,NW,306,0.0,6.0,70,0.00,,,0.04,0,weatherlink.com 1.10,2013-04-15 02:47:00,
2013-04-14 23:02:00,31.6,24.0,30.18,WNW,292,0.0,5.0,73,0.00,,,0.04,0,weatherlink.com 1.10,2013-04-15 03:02:00,
2013-04-14 23:17:00,31.0,24.0,30.19,West,267,0.0,1.0,74,0.00,,,0.04,0,weatherlink.com 1.10,2013-04-15 03:17:00,
2013-04-14 23:32:00,30.2,23.0,30.20,West,267,0.0,1.0,74,0.00,,,0.04,0,weatherlink.com 1.10,2013-04-15 03:32:00,
2013-04-14 23:47:00,29.9,23.0,30.20,West,267,0.0,1.0,74,0.00,,,0.04,0,weatherlink.com 1.10,2013-04-15 03:47:00,